Time;durP1;ratioP1;P1;durP2;ratioP2;P2;SDS_P1;SDS_P2;PMS_P1;PMS_P2;Temp;Humidity;BMP_temperature;BMP_pressure;BME280_temperature;BME280_humidity;BME280_pressure;Samples;Min_cycle;Max_cycle;Signal;HPM_P1;HPM_P2
2022/04/05 00:01:50;;;;;;;8.13;4.80;;;9.80;59.00;;;;;;958024;148;27436;-74
2022/04/05 00:04:17;;;;;;;4.83;4.37;;;9.80;59.20;;;;;;956848;148;27442;-74
2022/04/05 00:06:43;;;;;;;4.97;4.53;;;9.80;59.40;;;;;;957274;148;27362;-75
2022/04/05 00:09:10;;;;;;;4.67;4.27;;;9.70;59.20;;;;;;958893;147;27733;-74
2022/04/05 00:11:36;;;;;;;5.23;4.60;;;9.80;59.20;;;;;;958645;148;27264;-74
2022/04/05 00:14:03;;;;;;;5.37;4.87;;;9.70;59.10;;;;;;946469;148;27355;-74
2022/04/05 00:16:29;;;;;;;4.77;4.33;;;9.70;59.50;;;;;;946984;148;27403;-74
2022/04/05 00:18:56;;;;;;;5.10;4.70;;;9.70;59.40;;;;;;938706;149;27384;-74
2022/04/05 00:21:23;;;;;;;4.87;4.47;;;9.70;59.60;;;;;;941759;149;27305;-74
2022/04/05 00:23:49;;;;;;;4.97;4.53;;;9.70;59.40;;;;;;940750;149;27303;-74
2022/04/05 00:26:16;;;;;;;5.00;4.50;;;9.70;59.40;;;;;;942954;149;27315;-74
2022/04/05 00:28:42;;;;;;;5.23;4.50;;;9.70;59.40;;;;;;939938;149;27435;-74
2022/04/05 00:31:09;;;;;;;4.40;4.00;;;9.70;59.30;;;;;;940504;149;27420;-74
2022/04/05 00:33:36;;;;;;;4.47;4.17;;;9.70;59.80;;;;;;938869;149;27293;-74
2022/04/05 00:36:02;;;;;;;4.50;4.20;;;9.70;59.50;;;;;;941563;149;27327;-73
2022/04/05 00:38:29;;;;;;;4.60;4.00;;;9.70;59.80;;;;;;941026;148;27403;-74
2022/04/05 00:40:55;;;;;;;5.20;4.77;;;9.70;60.00;;;;;;941576;149;28087;-74
2022/04/05 00:43:22;;;;;;;4.53;4.13;;;9.80;59.60;;;;;;940968;149;27301;-74
2022/04/05 00:45:48;;;;;;;4.67;4.27;;;9.70;59.70;;;;;;939786;149;27229;-74
2022/04/05 00:48:18;;;;;;;5.07;4.67;;;9.70;59.80;;;;;;940665;149;27306;-74
2022/04/05 00:50:44;;;;;;;4.30;3.93;;;9.70;59.70;;;;;;941166;149;27439;-74
2022/04/05 00:53:11;;;;;;;6.53;4.50;;;9.70;60.00;;;;;;941807;149;27331;-74
2022/04/05 00:55:38;;;;;;;4.33;3.93;;;9.70;60.00;;;;;;940284;149;27399;-74
2022/04/05 00:58:04;;;;;;;4.80;4.13;;;9.70;60.00;;;;;;942528;149;27271;-74
2022/04/05 01:00:31;;;;;;;3.83;3.53;;;9.70;60.00;;;;;;942165;149;27335;-74
2022/04/05 01:02:58;;;;;;;3.97;3.67;;;9.70;60.60;;;;;;938196;149;27389;-74
2022/04/05 01:05:25;;;;;;;3.70;3.47;;;9.70;61.10;;;;;;940306;149;27335;-74
2022/04/05 01:07:51;;;;;;;4.30;3.90;;;9.70;60.50;;;;;;941087;149;27330;-74
2022/04/05 01:10:17;;;;;;;3.83;3.47;;;9.70;60.70;;;;;;938479;149;27349;-74
2022/04/05 01:12:44;;;;;;;4.43;4.07;;;9.70;61.00;;;;;;943706;149;27460;-74
2022/04/05 01:15:12;;;;;;;4.20;3.90;;;9.60;60.80;;;;;;940904;149;27376;-74
2022/04/05 01:17:37;;;;;;;3.93;3.63;;;9.60;61.40;;;;;;942201;149;27290;-74
2022/04/05 01:20:03;;;;;;;4.30;3.90;;;9.60;61.70;;;;;;946455;149;27283;-74
2022/04/05 01:22:30;;;;;;;3.93;3.63;;;9.50;61.50;;;;;;947014;149;27336;-74
2022/04/05 01:24:57;;;;;;;4.70;3.80;;;9.50;61.70;;;;;;947204;149;27306;-74
2022/04/05 01:27:27;;;;;;;4.47;4.07;;;9.50;61.70;;;;;;946978;149;27369;-74
2022/04/05 01:29:50;;;;;;;3.87;3.47;;;9.50;61.90;;;;;;946226;149;27282;-74
2022/04/05 01:32:16;;;;;;;5.83;3.57;;;9.50;62.30;;;;;;948752;149;27363;-74
2022/04/05 01:34:43;;;;;;;4.07;3.67;;;9.50;62.00;;;;;;947726;149;27599;-75
2022/04/05 01:37:12;;;;;;;4.03;3.63;;;9.50;62.20;;;;;;948759;149;27867;-74
2022/04/05 01:39:39;;;;;;;3.90;3.60;;;9.50;63.00;;;;;;946667;149;28713;-73
2022/04/05 01:42:05;;;;;;;3.90;3.60;;;9.50;62.50;;;;;;948518;149;27594;-73
2022/04/05 01:44:32;;;;;;;3.83;3.53;;;9.50;62.40;;;;;;946375;149;27348;-73
2022/04/05 01:47:04;;;;;;;4.23;3.80;;;9.50;62.80;;;;;;946733;149;27287;-73
2022/04/05 01:49:31;;;;;;;3.83;3.50;;;9.50;63.50;;;;;;944633;149;27819;-73
2022/04/05 01:51:57;;;;;;;3.87;3.47;;;9.50;63.50;;;;;;948243;149;27298;-73
2022/04/05 01:54:24;;;;;;;4.00;3.70;;;9.40;63.70;;;;;;947894;148;27348;-73
2022/04/05 01:56:50;;;;;;;3.67;3.37;;;9.40;63.50;;;;;;948051;149;27338;-73
2022/04/05 01:59:17;;;;;;;4.00;3.53;;;9.40;63.10;;;;;;947368;149;27344;-73
2022/04/05 02:01:44;;;;;;;3.97;3.57;;;9.40;63.20;;;;;;946496;149;27769;-73
2022/04/05 02:04:10;;;;;;;4.63;3.70;;;9.40;63.40;;;;;;946602;149;27269;-73
2022/04/05 02:06:37;;;;;;;3.80;3.50;;;9.40;63.40;;;;;;947904;149;27408;-74
2022/04/05 02:09:03;;;;;;;4.20;3.17;;;9.40;63.40;;;;;;948617;148;27280;-73
2022/04/05 02:11:30;;;;;;;3.17;2.97;;;9.50;63.40;;;;;;947367;149;27346;-74
2022/04/05 02:13:56;;;;;;;5.27;3.70;;;9.50;63.70;;;;;;947014;149;27437;-74
2022/04/05 02:16:23;;;;;;;3.57;3.27;;;9.50;63.50;;;;;;949368;148;27355;-73
2022/04/05 02:18:50;;;;;;;3.40;3.20;;;9.50;63.90;;;;;;944753;149;27813;-73
2022/04/05 02:21:16;;;;;;;3.87;3.40;;;9.50;63.90;;;;;;947679;149;27772;-73
2022/04/05 02:23:43;;;;;;;4.07;3.77;;;9.50;64.10;;;;;;949006;149;27267;-74
2022/04/05 02:26:10;;;;;;;3.77;3.47;;;9.40;63.70;;;;;;944568;149;27369;-74
2022/04/05 02:28:36;;;;;;;3.90;3.47;;;9.40;64.00;;;;;;946560;149;27309;-74
2022/04/05 02:31:03;;;;;;;3.47;3.17;;;9.40;64.10;;;;;;948019;149;27316;-73
2022/04/05 02:33:29;;;;;;;3.57;3.27;;;9.40;64.60;;;;;;949982;149;27384;-73
2022/04/05 02:35:56;;;;;;;3.87;3.47;;;9.40;64.30;;;;;;946526;149;27338;-74
2022/04/05 02:38:22;;;;;;;3.60;3.40;;;9.40;64.40;;;;;;946033;149;28057;-74
2022/04/05 02:40:49;;;;;;;3.43;3.13;;;9.40;64.40;;;;;;936303;151;27265;-74
2022/04/05 02:43:15;;;;;;;3.23;2.93;;;9.40;64.80;;;;;;938649;151;27325;-72
2022/04/05 02:45:42;;;;;;;3.37;3.00;;;9.40;64.50;;;;;;950806;148;27279;-72
2022/04/05 02:48:09;;;;;;;3.20;3.00;;;9.40;64.30;;;;;;951706;148;27347;-73
2022/04/05 02:50:35;;;;;;;3.57;3.33;;;9.40;65.00;;;;;;937535;151;27364;-72
2022/04/05 02:53:02;;;;;;;3.33;3.13;;;9.40;64.80;;;;;;938023;148;27261;-72
2022/04/05 02:55:28;;;;;;;3.00;2.80;;;9.40;64.50;;;;;;952140;148;27338;-72
2022/04/05 02:57:55;;;;;;;3.10;2.90;;;9.40;64.80;;;;;;954625;148;27414;-73
2022/04/05 03:00:22;;;;;;;4.57;3.57;;;9.40;64.50;;;;;;952066;148;27470;-73
2022/04/05 03:02:48;;;;;;;3.07;2.77;;;9.50;64.60;;;;;;952838;148;27389;-72
2022/04/05 03:05:17;;;;;;;2.50;2.30;;;9.50;64.70;;;;;;928686;151;27332;-72
2022/04/05 03:07:41;;;;;;;3.93;3.00;;;9.50;64.80;;;;;;953243;147;27311;-72
2022/04/05 03:10:08;;;;;;;2.87;2.67;;;9.50;64.60;;;;;;953361;148;27363;-73
2022/04/05 03:12:35;;;;;;;4.90;2.87;;;9.60;65.00;;;;;;942278;149;27688;-72
2022/04/05 03:15:01;;;;;;;2.73;2.53;;;9.60;65.30;;;;;;952568;148;28273;-72
2022/04/05 03:17:28;;;;;;;3.20;2.90;;;9.60;64.80;;;;;;951424;148;27376;-72
2022/04/05 03:19:54;;;;;;;3.30;2.33;;;9.60;64.70;;;;;;939753;150;27358;-73
2022/04/05 03:22:21;;;;;;;2.60;2.40;;;9.60;64.80;;;;;;940680;150;27405;-76
2022/04/05 03:24:47;;;;;;;2.53;2.33;;;9.70;65.30;;;;;;942070;150;27372;-74
2022/04/05 03:27:14;;;;;;;2.70;2.50;;;9.70;65.10;;;;;;940988;150;27947;-75
2022/04/05 03:29:41;;;;;;;3.10;2.80;;;9.70;64.90;;;;;;938195;150;27825;-75
2022/04/05 03:32:08;;;;;;;2.63;2.43;;;9.70;65.00;;;;;;941031;150;27332;-75
2022/04/05 03:34:34;;;;;;;2.70;2.43;;;9.70;65.00;;;;;;945815;150;27305;-76
2022/04/05 03:37:00;;;;;;;2.40;2.30;;;9.70;65.10;;;;;;940929;150;27482;-75
2022/04/05 03:39:27;;;;;;;2.83;2.63;;;9.70;65.30;;;;;;956565;147;27452;-72
2022/04/05 03:41:54;;;;;;;2.60;2.40;;;9.70;65.20;;;;;;959158;147;27260;-72
2022/04/05 03:44:20;;;;;;;2.40;2.27;;;9.70;65.10;;;;;;960234;147;27268;-72
2022/04/05 03:46:47;;;;;;;2.70;2.50;;;9.70;65.20;;;;;;960568;147;27287;-72
2022/04/05 03:49:13;;;;;;;2.50;2.30;;;9.70;65.10;;;;;;936549;150;27389;-73
2022/04/05 03:51:40;;;;;;;2.57;2.37;;;9.70;65.70;;;;;;936999;150;27406;-73
2022/04/05 03:54:06;;;;;;;2.83;2.63;;;9.70;65.40;;;;;;936705;150;27455;-73
2022/04/05 03:56:33;;;;;;;2.57;2.37;;;9.70;65.30;;;;;;935839;150;27353;-73
2022/04/05 03:59:00;;;;;;;2.63;2.40;;;9.70;65.60;;;;;;936708;150;27424;-73
2022/04/05 04:01:26;;;;;;;2.50;2.30;;;9.70;65.60;;;;;;936325;150;27395;-73
2022/04/05 04:03:53;;;;;;;2.63;2.43;;;9.80;65.70;;;;;;936802;150;27400;-72
2022/04/05 04:06:19;;;;;;;2.33;2.13;;;9.70;66.00;;;;;;936126;150;27362;-74
2022/04/05 04:08:46;;;;;;;2.37;2.27;;;9.70;65.60;;;;;;936408;150;27446;-75
2022/04/05 04:11:13;;;;;;;2.60;2.40;;;9.70;65.90;;;;;;936248;150;27347;-75
2022/04/05 04:13:39;;;;;;;2.30;2.10;;;9.80;66.00;;;;;;936490;150;27507;-75
2022/04/05 04:16:06;;;;;;;2.23;2.03;;;9.70;66.80;;;;;;936057;150;27365;-74
2022/04/05 04:18:32;;;;;;;2.70;2.50;;;9.80;65.90;;;;;;936184;150;27295;-75
2022/04/05 04:20:59;;;;;;;2.90;2.70;;;9.80;65.70;;;;;;918437;152;27375;-74
2022/04/05 04:23:26;;;;;;;2.50;2.30;;;9.80;65.90;;;;;;916736;154;27386;-75
2022/04/05 04:25:52;;;;;;;2.43;2.33;;;9.80;66.00;;;;;;916531;154;27328;-76
2022/04/05 04:28:20;;;;;;;2.67;2.50;;;9.80;65.90;;;;;;916703;154;27499;-74
2022/04/05 04:30:45;;;;;;;2.43;2.30;;;9.80;66.00;;;;;;916479;153;28208;-75
2022/04/05 04:33:13;;;;;;;2.60;2.40;;;9.90;66.10;;;;;;916408;153;27308;-73
2022/04/05 04:35:38;;;;;;;2.53;2.43;;;9.90;66.30;;;;;;916313;155;27363;-73
2022/04/05 04:38:05;;;;;;;2.77;2.57;;;9.90;66.30;;;;;;916573;154;27401;-72
2022/04/05 04:40:32;;;;;;;2.70;2.50;;;9.90;66.70;;;;;;916261;153;27501;-73
2022/04/05 04:42:58;;;;;;;2.60;2.40;;;9.90;66.30;;;;;;938258;150;27263;-72
2022/04/05 04:45:27;;;;;;;3.23;2.60;;;9.90;66.70;;;;;;924257;153;27269;-71
2022/04/05 04:47:51;;;;;;;2.63;2.43;;;9.90;66.50;;;;;;933262;151;27327;-73
2022/04/05 04:50:18;;;;;;;2.70;2.50;;;9.90;66.50;;;;;;941447;150;27346;-72
2022/04/05 04:52:45;;;;;;;2.53;2.33;;;9.90;66.50;;;;;;938539;150;27451;-72
2022/04/05 04:55:11;;;;;;;2.60;2.50;;;9.90;66.80;;;;;;940459;150;27288;-72
2022/04/05 04:57:38;;;;;;;2.77;2.50;;;9.90;66.90;;;;;;921632;152;27711;-72
2022/04/05 05:00:04;;;;;;;4.93;2.40;;;9.90;67.00;;;;;;937726;150;27345;-72
2022/04/05 05:02:31;;;;;;;2.33;2.23;;;9.90;67.30;;;;;;936809;150;27348;-73
2022/04/05 05:04:57;;;;;;;2.40;2.20;;;9.90;68.10;;;;;;942479;150;27368;-74
2022/04/05 05:07:24;;;;;;;2.53;2.33;;;9.90;66.80;;;;;;923246;153;28155;-75
2022/04/05 05:09:51;;;;;;;2.73;2.57;;;9.90;67.10;;;;;;923633;153;27370;-75
2022/04/05 05:12:17;;;;;;;2.63;2.43;;;9.90;67.50;;;;;;919862;153;27628;-75
2022/04/05 05:14:44;;;;;;;2.57;2.43;;;9.90;67.20;;;;;;940331;151;27323;-74
2022/04/05 05:17:10;;;;;;;2.13;2.03;;;9.90;67.60;;;;;;929313;152;27343;-74
2022/04/05 05:19:37;;;;;;;2.60;2.40;;;9.90;67.30;;;;;;929356;150;27479;-75
2022/04/05 05:22:04;;;;;;;2.50;2.40;;;9.90;67.30;;;;;;931170;152;27370;-73
2022/04/05 05:24:30;;;;;;;2.70;2.50;;;9.90;67.50;;;;;;929578;152;27322;-73
2022/04/05 05:26:57;;;;;;;2.50;2.40;;;9.90;67.80;;;;;;930984;152;28106;-73
2022/04/05 05:29:23;;;;;;;2.87;2.67;;;9.90;67.60;;;;;;930457;152;27382;-72
2022/04/05 05:31:50;;;;;;;2.47;2.37;;;9.90;68.30;;;;;;950932;149;27799;-73
2022/04/05 05:34:22;;;;;;;2.80;2.60;;;9.90;67.40;;;;;;934395;151;27437;-73
2022/04/05 05:36:43;;;;;;;3.33;2.80;;;10.00;67.30;;;;;;935463;151;27413;-73
2022/04/05 05:39:10;;;;;;;2.40;2.30;;;10.00;67.50;;;;;;944740;149;27335;-74
2022/04/05 05:41:36;;;;;;;2.37;2.17;;;10.00;67.50;;;;;;946766;149;27322;-73
2022/04/05 05:44:03;;;;;;;2.83;2.63;;;10.00;67.40;;;;;;937129;151;27329;-72
2022/04/05 05:46:29;;;;;;;2.60;2.40;;;10.00;66.80;;;;;;946451;149;27425;-72
2022/04/05 05:48:56;;;;;;;3.10;2.50;;;10.10;67.50;;;;;;929640;152;27371;-71
2022/04/05 05:51:23;;;;;;;2.93;2.47;;;10.10;67.70;;;;;;928580;152;27487;-72
2022/04/05 05:53:49;;;;;;;2.57;2.37;;;10.10;68.20;;;;;;926884;152;27452;-72
2022/04/05 05:56:16;;;;;;;2.70;2.50;;;10.10;67.90;;;;;;927447;154;27322;-73
2022/04/05 05:58:42;;;;;;;2.43;2.23;;;10.10;67.80;;;;;;928353;151;27365;-72
2022/04/05 06:01:09;;;;;;;2.83;2.63;;;10.10;68.10;;;;;;944986;149;27283;-73
2022/04/05 06:03:36;;;;;;;2.90;2.70;;;10.10;68.20;;;;;;946433;149;27736;-72
2022/04/05 06:06:02;;;;;;;2.50;2.40;;;10.10;68.30;;;;;;945166;148;28489;-75
2022/04/05 06:08:29;;;;;;;2.97;2.77;;;10.10;68.20;;;;;;945989;149;27427;-73
2022/04/05 06:10:55;;;;;;;2.73;2.53;;;10.10;68.40;;;;;;945611;149;27827;-73
2022/04/05 06:13:22;;;;;;;3.57;3.27;;;10.10;68.40;;;;;;944125;149;27388;-74
2022/04/05 06:15:48;;;;;;;2.80;2.60;;;10.10;68.70;;;;;;947171;149;27385;-72
2022/04/05 06:18:15;;;;;;;2.43;2.23;;;10.10;68.90;;;;;;947169;149;27469;-72
2022/04/05 06:20:42;;;;;;;3.93;2.37;;;10.10;69.00;;;;;;945063;149;27397;-72
2022/04/05 06:23:08;;;;;;;3.10;2.63;;;10.10;69.00;;;;;;942868;150;27454;-72
2022/04/05 06:25:35;;;;;;;2.93;2.73;;;10.10;69.00;;;;;;942988;150;27315;-73
2022/04/05 06:28:02;;;;;;;2.43;2.23;;;10.10;69.00;;;;;;943287;150;27475;-74
2022/04/05 06:30:28;;;;;;;2.37;2.27;;;10.10;69.30;;;;;;927001;152;27431;-72
2022/04/05 06:33:04;;;;;;;2.33;2.20;;;10.10;69.50;;;;;;925011;152;27417;-72
2022/04/05 06:35:30;;;;;;;2.50;2.30;;;10.10;69.70;;;;;;924356;151;27743;-73
2022/04/05 06:37:57;;;;;;;2.70;2.53;;;10.10;69.40;;;;;;937018;151;27410;-73
2022/04/05 06:40:23;;;;;;;2.60;2.40;;;10.20;69.70;;;;;;932409;151;27358;-72
2022/04/05 06:42:50;;;;;;;2.27;2.17;;;10.20;69.80;;;;;;943719;149;27386;-73
2022/04/05 06:45:21;;;;;;;2.20;2.10;;;10.20;69.80;;;;;;925083;150;27271;-73
2022/04/05 06:47:43;;;;;;;2.67;2.47;;;10.20;70.00;;;;;;925740;152;27433;-72
2022/04/05 06:50:10;;;;;;;2.47;2.33;;;10.30;70.10;;;;;;943059;149;27342;-73
2022/04/05 06:52:37;;;;;;;2.23;2.10;;;10.30;69.80;;;;;;942584;149;27361;-74
2022/04/05 06:55:03;;;;;;;2.63;2.43;;;10.30;70.30;;;;;;943640;149;27658;-74
2022/04/05 06:57:29;;;;;;;2.53;2.33;;;10.30;70.00;;;;;;941850;149;27425;-75
2022/04/05 06:59:56;;;;;;;2.83;2.40;;;10.30;69.90;;;;;;943425;149;27302;-75
2022/04/05 07:02:23;;;;;;;2.77;2.57;;;10.30;70.10;;;;;;941669;149;27242;-75
2022/04/05 07:04:49;;;;;;;2.17;2.07;;;10.40;70.20;;;;;;936896;151;27311;-77
2022/04/05 07:07:17;;;;;;;2.50;2.30;;;10.40;70.60;;;;;;943863;150;27436;-74
2022/04/05 07:09:42;;;;;;;3.10;2.90;;;10.40;70.50;;;;;;932199;151;27457;-75
2022/04/05 07:12:09;;;;;;;2.97;2.60;;;10.40;70.40;;;;;;941532;148;27333;-76
2022/04/05 07:14:35;;;;;;;3.03;2.73;;;10.40;70.70;;;;;;926918;152;27382;-74
2022/04/05 07:17:02;;;;;;;2.70;2.50;;;10.40;70.80;;;;;;938330;150;27429;-74
2022/04/05 07:19:29;;;;;;;2.60;2.40;;;10.50;71.00;;;;;;940876;149;27358;-75
2022/04/05 07:21:55;;;;;;;2.60;2.40;;;10.50;71.20;;;;;;940153;149;27327;-74
2022/04/05 07:24:22;;;;;;;2.73;2.53;;;10.50;71.10;;;;;;938702;149;27369;-75
2022/04/05 07:26:48;;;;;;;2.37;2.27;;;10.50;71.20;;;;;;937506;150;27379;-75
2022/04/05 07:29:15;;;;;;;2.63;2.43;;;10.60;71.60;;;;;;939174;150;27324;-75
2022/04/05 07:31:42;;;;;;;2.90;2.70;;;10.60;71.60;;;;;;920534;152;27399;-74
2022/04/05 07:34:08;;;;;;;2.70;2.50;;;10.60;71.60;;;;;;940758;149;27286;-75
2022/04/05 07:36:35;;;;;;;2.70;2.50;;;10.70;71.70;;;;;;932444;151;27308;-75
2022/04/05 07:39:01;;;;;;;2.77;2.57;;;10.70;71.90;;;;;;932192;151;27402;-75
2022/04/05 07:41:28;;;;;;;2.87;2.57;;;10.80;72.20;;;;;;922680;152;27372;-74
2022/04/05 07:43:55;;;;;;;2.60;2.40;;;10.80;71.60;;;;;;919810;152;27386;-74
2022/04/05 07:46:21;;;;;;;2.53;2.33;;;10.90;71.80;;;;;;941628;149;27334;-75
2022/04/05 07:48:48;;;;;;;2.70;2.50;;;10.90;71.80;;;;;;938110;149;27249;-75
2022/04/05 07:51:14;;;;;;;2.17;2.07;;;10.90;71.70;;;;;;940948;149;27380;-75
2022/04/05 07:53:41;;;;;;;2.40;2.30;;;11.00;71.90;;;;;;935560;150;27339;-74
2022/04/05 07:56:08;;;;;;;2.20;2.10;;;11.00;72.40;;;;;;921404;152;27380;-75
2022/04/05 07:58:34;;;;;;;2.60;2.40;;;11.00;71.70;;;;;;941866;150;27260;-74
2022/04/05 08:01:01;;;;;;;4.80;2.30;;;11.10;71.90;;;;;;923132;152;27306;-75
2022/04/05 08:03:28;;;;;;;3.53;2.23;;;11.10;71.40;;;;;;943942;149;27299;-76
2022/04/05 08:05:54;;;;;;;2.17;2.07;;;11.10;72.50;;;;;;934364;151;27378;-77
2022/04/05 08:08:20;;;;;;;2.20;2.10;;;11.20;72.40;;;;;;934728;151;27368;-75
2022/04/05 08:10:47;;;;;;;2.50;2.40;;;11.20;72.80;;;;;;934289;151;27302;-74
2022/04/05 08:13:14;;;;;;;2.03;1.93;;;11.30;72.40;;;;;;935186;151;28127;-75
2022/04/05 08:15:41;;;;;;;2.67;2.47;;;11.40;72.20;;;;;;934904;151;27364;-75
2022/04/05 08:18:07;;;;;;;1.93;1.83;;;11.50;72.40;;;;;;919614;152;27473;-77
2022/04/05 08:20:34;;;;;;;2.57;2.43;;;11.50;72.20;;;;;;921937;152;27483;-75
2022/04/05 08:23:00;;;;;;;2.50;2.30;;;11.70;72.40;;;;;;917975;152;27388;-75
2022/04/05 08:25:28;;;;;;;2.33;2.23;;;11.80;73.10;;;;;;920823;152;27320;-75
2022/04/05 08:27:53;;;;;;;2.60;2.40;;;11.90;72.30;;;;;;921110;152;27758;-76
2022/04/05 08:30:20;;;;;;;2.60;2.40;;;12.00;72.20;;;;;;936743;149;27353;-75
2022/04/05 08:32:46;;;;;;;2.60;2.30;;;12.10;71.20;;;;;;935452;149;27747;-75
2022/04/05 08:35:13;;;;;;;2.53;2.33;;;12.20;72.00;;;;;;935581;150;27297;-75
2022/04/05 08:37:39;;;;;;;2.20;2.00;;;12.30;72.00;;;;;;936681;149;27321;-75
2022/04/05 08:40:09;;;;;;;1.70;1.60;;;12.30;71.70;;;;;;935804;150;27376;-76
2022/04/05 08:42:36;;;;;;;2.00;1.90;;;12.40;71.50;;;;;;921301;152;27496;-75
2022/04/05 08:45:02;;;;;;;1.90;1.80;;;12.50;71.30;;;;;;939807;150;27366;-74
2022/04/05 08:47:29;;;;;;;1.50;1.40;;;12.60;71.20;;;;;;918427;152;27376;-73
2022/04/05 08:49:55;;;;;;;2.10;2.00;;;12.70;71.10;;;;;;920498;152;27346;-73
2022/04/05 08:52:22;;;;;;;1.77;1.67;;;12.80;71.00;;;;;;921690;152;27427;-73
2022/04/05 08:54:49;;;;;;;1.50;1.50;;;12.80;70.60;;;;;;920848;152;27343;-75
2022/04/05 08:57:15;;;;;;;2.10;2.00;;;12.90;70.30;;;;;;924109;152;27472;-73
2022/04/05 08:59:42;;;;;;;2.33;1.70;;;13.00;69.90;;;;;;934411;149;27272;-73
2022/04/05 09:02:08;;;;;;;1.73;1.63;;;13.00;69.60;;;;;;923229;153;27535;-73
2022/04/05 09:04:35;;;;;;;1.80;1.70;;;13.00;69.50;;;;;;940165;149;27373;-73
2022/04/05 09:07:19;;;;;;;1.80;1.70;;;13.00;69.30;;;;;;940359;150;27303;-74
2022/04/05 09:09:46;;;;;;;1.87;1.77;;;12.90;69.30;;;;;;940493;150;27730;-73
2022/04/05 09:12:16;;;;;;;2.70;2.50;;;12.90;69.30;;;;;;936012;149;27323;-74
2022/04/05 09:14:42;;;;;;;2.90;2.70;;;12.90;70.00;;;;;;938193;149;27442;-73
2022/04/05 09:17:09;;;;;;;2.03;1.93;;;12.90;69.60;;;;;;940058;149;27407;-76
2022/04/05 09:19:48;;;;;;;1.77;1.67;;;12.90;69.50;;;;;;937578;149;27419;-74
2022/04/05 09:22:13;;;;;;;1.80;1.70;;;13.00;69.50;;;;;;935582;151;27377;-73
2022/04/05 09:24:40;;;;;;;2.30;1.90;;;13.00;69.70;;;;;;933954;151;27461;-74
2022/04/05 09:27:06;;;;;;;2.27;1.90;;;13.10;69.60;;;;;;933569;151;28787;-74
2022/04/05 09:29:47;;;;;;;1.90;1.80;;;13.10;69.80;;;;;;920583;152;27710;-75
2022/04/05 09:32:11;;;;;;;1.73;1.63;;;13.20;69.80;;;;;;918872;152;27398;-73
2022/04/05 09:34:50;;;;;;;1.73;1.63;;;13.20;69.60;;;;;;920158;152;27427;-74
2022/04/05 09:37:17;;;;;;;1.97;1.57;;;13.30;69.60;;;;;;920568;152;27290;-74
2022/04/05 09:39:43;;;;;;;1.93;1.77;;;13.30;69.50;;;;;;935609;150;27339;-73
2022/04/05 09:42:10;;;;;;;1.90;1.80;;;13.40;69.40;;;;;;937541;150;27426;-76
2022/04/05 09:44:39;;;;;;;1.80;1.70;;;13.50;69.40;;;;;;934264;150;27368;-73
2022/04/05 09:47:08;;;;;;;1.90;1.80;;;13.50;69.20;;;;;;939568;149;27350;-73
2022/04/05 09:49:35;;;;;;;1.97;1.87;;;13.50;69.10;;;;;;937081;151;27296;-74
2022/04/05 09:52:01;;;;;;;2.30;2.10;;;13.60;69.20;;;;;;933577;151;27376;-74
2022/04/05 09:54:28;;;;;;;2.03;1.93;;;13.70;69.30;;;;;;940230;149;27343;-73
2022/04/05 09:57:03;;;;;;;1.87;1.77;;;13.80;69.40;;;;;;938003;150;27281;-73
2022/04/05 09:59:39;;;;;;;2.97;1.90;;;14.00;69.40;;;;;;919846;152;27818;-74
2022/04/05 10:02:14;;;;;;;2.10;2.00;;;14.20;69.30;;;;;;922044;153;27377;-73
2022/04/05 10:05:06;;;;;;;1.80;1.70;;;14.30;69.20;;;;;;920836;152;27316;-73
2022/04/05 10:07:32;;;;;;;1.60;1.50;;;14.50;68.80;;;;;;942097;150;27416;-75
2022/04/05 10:09:58;;;;;;;1.67;1.57;;;14.70;68.60;;;;;;939004;150;27419;-74
2022/04/05 10:12:25;;;;;;;2.57;1.83;;;14.80;68.30;;;;;;937131;150;27320;-74
2022/04/05 10:14:52;;;;;;;2.13;1.97;;;15.00;67.90;;;;;;939029;150;27267;-75
2022/04/05 10:17:19;;;;;;;1.70;1.60;;;15.10;67.50;;;;;;921855;152;27394;-74
2022/04/05 10:19:45;;;;;;;2.33;1.60;;;15.20;67.00;;;;;;918164;152;27913;-74
2022/04/05 10:22:11;;;;;;;1.67;1.57;;;15.30;66.60;;;;;;939408;149;27300;-73
2022/04/05 10:24:38;;;;;;;1.90;1.80;;;15.40;66.70;;;;;;956981;146;27523;-74
2022/04/05 10:27:05;;;;;;;1.60;1.50;;;15.50;66.60;;;;;;961018;147;27286;-74
2022/04/05 10:29:31;;;;;;;1.67;1.57;;;15.60;66.70;;;;;;960419;147;27337;-76
2022/04/05 10:32:01;;;;;;;1.60;1.53;;;15.80;66.70;;;;;;948422;145;27519;-74
2022/04/05 10:34:46;;;;;;;1.67;1.60;;;15.90;66.00;;;;;;937363;150;27333;-74
2022/04/05 10:37:18;;;;;;;1.53;1.50;;;16.00;65.50;;;;;;916740;150;27392;-73
2022/04/05 10:39:41;;;;;;;1.80;1.70;;;16.10;64.80;;;;;;952746;147;27486;-74
2022/04/05 10:42:11;;;;;;;1.67;1.50;;;16.10;64.40;;;;;;953116;147;27350;-74
2022/04/05 10:44:37;;;;;;;1.52;1.30;;;16.10;64.10;;;;;;953093;147;28033;-74
2022/04/05 10:47:06;;;;;;;1.77;1.67;;;16.10;64.20;;;;;;953307;147;27259;-74
2022/04/05 10:49:47;;;;;;;1.65;1.55;;;16.10;64.00;;;;;;968805;145;27264;-74
2022/04/05 10:52:11;;;;;;;1.50;1.40;;;16.00;63.70;;;;;;968592;145;27355;-73
2022/04/05 10:54:39;;;;;;;2.17;1.65;;;16.00;63.70;;;;;;968895;145;27880;-73
2022/04/05 10:57:21;;;;;;;1.53;1.43;;;16.00;63.60;;;;;;968422;145;27247;-75
2022/04/05 10:59:47;;;;;;;1.97;1.87;;;15.90;63.50;;;;;;969118;145;27342;-73
2022/04/05 11:02:46;;;;;;;1.50;1.40;;;15.90;63.50;;;;;;968670;145;27327;-75
2022/04/05 11:05:18;;;;;;;1.50;1.40;;;15.80;63.50;;;;;;969669;145;27326;-76
2022/04/05 11:07:54;;;;;;;1.60;1.50;;;15.80;63.60;;;;;;968675;145;27383;-73
2022/04/05 11:10:26;;;;;;;1.85;1.75;;;15.70;63.60;;;;;;968919;145;27632;-73
2022/04/05 11:13:20;;;;;;;1.87;1.77;;;15.70;63.80;;;;;;969133;145;27265;-73
2022/04/05 11:15:47;;;;;;;1.60;1.50;;;15.70;63.80;;;;;;969514;145;27629;-73
2022/04/05 11:18:13;;;;;;;1.52;1.42;;;15.70;63.80;;;;;;969660;145;27331;-75
2022/04/05 11:20:41;;;;;;;1.60;1.50;;;15.60;63.70;;;;;;968113;145;27444;-73
2022/04/05 11:23:06;;;;;;;1.90;1.80;;;15.60;63.70;;;;;;968365;145;27283;-74
2022/04/05 11:25:33;;;;;;;1.73;1.63;;;15.60;63.90;;;;;;969137;145;27321;-73
2022/04/05 11:28:12;;;;;;;1.63;1.53;;;15.60;63.70;;;;;;970460;145;27433;-75
2022/04/05 11:30:56;;;;;;;1.93;1.83;;;15.60;63.60;;;;;;971143;142;27343;-73
2022/04/05 11:33:31;;;;;;;1.80;1.70;;;15.60;63.40;;;;;;987218;142;28393;-74
2022/04/05 11:36:01;;;;;;;1.87;1.77;;;15.50;63.40;;;;;;987042;142;27326;-72
2022/04/05 11:38:30;;;;;;;2.17;1.90;;;15.40;63.50;;;;;;987276;142;27352;-75
2022/04/05 11:41:07;;;;;;;1.90;1.80;;;15.40;63.50;;;;;;986011;142;27428;-74
2022/04/05 11:43:32;;;;;;;2.00;1.90;;;15.30;63.50;;;;;;986994;142;27361;-72
2022/04/05 11:46:02;;;;;;;1.87;1.77;;;15.30;63.70;;;;;;986125;142;27292;-73
2022/04/05 11:48:28;;;;;;;1.87;1.77;;;15.20;64.00;;;;;;986521;142;27346;-73
2022/04/05 11:50:54;;;;;;;2.30;2.20;;;15.10;63.70;;;;;;986946;142;27328;-73
2022/04/05 11:53:24;;;;;;;2.20;2.10;;;15.10;63.90;;;;;;986824;142;27284;-73
2022/04/05 11:56:16;;;;;;;2.10;2.00;;;15.00;64.10;;;;;;986681;143;27272;-72
2022/04/05 11:58:42;;;;;;;1.90;1.80;;;15.00;64.60;;;;;;987451;142;27399;-74
2022/04/05 12:01:08;;;;;;;2.40;2.17;;;15.00;64.80;;;;;;985465;142;27424;-74
2022/04/05 12:03:41;;;;;;;2.00;1.90;;;15.00;65.30;;;;;;986622;142;27856;-73
2022/04/05 12:06:07;;;;;;;2.00;1.90;;;15.10;65.60;;;;;;986775;142;27365;-74
2022/04/05 12:08:34;;;;;;;2.27;2.17;;;15.20;65.60;;;;;;987145;142;27249;-73
2022/04/05 12:11:00;;;;;;;1.70;1.60;;;15.30;65.50;;;;;;971760;145;27231;-74
2022/04/05 12:13:27;;;;;;;2.55;1.90;;;15.40;65.30;;;;;;986823;142;27334;-75
2022/04/05 12:15:53;;;;;;;2.50;2.30;;;15.50;65.00;;;;;;971485;145;27345;-73
2022/04/05 12:18:28;;;;;;;2.33;2.13;;;15.50;64.50;;;;;;986360;142;27259;-73
2022/04/05 12:20:55;;;;;;;2.70;2.50;;;15.50;64.30;;;;;;986259;142;27288;-73
2022/04/05 12:23:21;;;;;;;2.45;2.25;;;15.50;64.20;;;;;;986375;142;27453;-73
2022/04/05 12:26:06;;;;;;;2.15;2.05;;;15.50;64.20;;;;;;986884;142;27323;-73
2022/04/05 12:28:33;;;;;;;2.30;2.20;;;15.50;64.20;;;;;;986858;142;27831;-73
2022/04/05 12:31:17;;;;;;;2.45;2.33;;;15.40;64.00;;;;;;985942;142;27341;-72
2022/04/05 12:34:11;;;;;;;2.80;2.20;;;15.40;64.10;;;;;;987253;142;27376;-73
2022/04/05 12:36:35;;;;;;;2.67;2.47;;;15.30;64.10;;;;;;988414;142;27395;-74
2022/04/05 12:39:01;;;;;;;2.50;2.30;;;15.30;64.20;;;;;;973403;145;27424;-74
2022/04/05 12:41:28;;;;;;;2.90;2.70;;;15.20;64.20;;;;;;990088;142;27412;-73
2022/04/05 12:44:13;;;;;;;2.75;2.55;;;15.20;64.30;;;;;;990562;142;27301;-73
2022/04/05 12:46:42;;;;;;;2.73;2.40;;;15.20;64.50;;;;;;990882;142;27216;-74
2022/04/05 12:49:34;;;;;;;2.63;2.43;;;15.10;64.30;;;;;;990871;142;27311;-73
2022/04/05 12:52:16;;;;;;;2.40;2.20;;;15.10;64.20;;;;;;956925;147;28423;-73
2022/04/05 12:54:52;;;;;;;2.37;2.27;;;15.00;64.50;;;;;;974155;144;27730;-73